sensor_id;sensor_type;location;lat;lon;timestamp;temperature;humidity
18103;DHT22;9178;51.120;6.192;2023-03-19T00:02:05;10.90;99.90
18103;DHT22;9178;51.120;6.192;2023-03-19T00:04:32;10.80;99.90
18103;DHT22;9178;51.120;6.192;2023-03-19T00:06:59;10.80;99.90
18103;DHT22;9178;51.120;6.192;2023-03-19T00:09:26;10.70;99.90
18103;DHT22;9178;51.120;6.192;2023-03-19T00:11:54;10.70;99.90
18103;DHT22;9178;51.120;6.192;2023-03-19T00:14:23;10.70;99.90
18103;DHT22;9178;51.120;6.192;2023-03-19T00:16:50;10.60;99.90
18103;DHT22;9178;51.120;6.192;2023-03-19T00:19:17;10.50;99.90
18103;DHT22;9178;51.120;6.192;2023-03-19T00:21:44;10.50;99.90
18103;DHT22;9178;51.120;6.192;2023-03-19T00:24:12;10.50;99.90
18103;DHT22;9178;51.120;6.192;2023-03-19T00:26:39;10.40;99.90
18103;DHT22;9178;51.120;6.192;2023-03-19T00:29:06;10.40;99.90
18103;DHT22;9178;51.120;6.192;2023-03-19T00:31:35;10.30;99.90
18103;DHT22;9178;51.120;6.192;2023-03-19T00:34:02;10.20;99.90
18103;DHT22;9178;51.120;6.192;2023-03-19T00:36:29;10.20;99.90
18103;DHT22;9178;51.120;6.192;2023-03-19T00:38:56;10.10;99.90
18103;DHT22;9178;51.120;6.192;2023-03-19T00:41:23;10.00;99.90
18103;DHT22;9178;51.120;6.192;2023-03-19T00:43:52;10.00;99.90
18103;DHT22;9178;51.120;6.192;2023-03-19T00:46:19;10.00;99.90
18103;DHT22;9178;51.120;6.192;2023-03-19T00:48:48;10.00;99.90
18103;DHT22;9178;51.120;6.192;2023-03-19T00:51:20;10.00;99.90
18103;DHT22;9178;51.120;6.192;2023-03-19T00:53:47;10.00;99.90
18103;DHT22;9178;51.120;6.192;2023-03-19T00:56:15;10.10;99.90
18103;DHT22;9178;51.120;6.192;2023-03-19T00:58:43;10.10;99.90
18103;DHT22;9178;51.120;6.192;2023-03-19T01:01:11;10.00;99.90
18103;DHT22;9178;51.120;6.192;2023-03-19T01:03:38;10.00;99.90
18103;DHT22;9178;51.120;6.192;2023-03-19T01:06:07;10.00;99.90
18103;DHT22;9178;51.120;6.192;2023-03-19T01:08:34;10.00;99.90
18103;DHT22;9178;51.120;6.192;2023-03-19T01:11:05;10.00;99.90
18103;DHT22;9178;51.120;6.192;2023-03-19T01:13:32;10.00;99.90
18103;DHT22;9178;51.120;6.192;2023-03-19T01:15:59;10.00;99.90
18103;DHT22;9178;51.120;6.192;2023-03-19T01:18:29;10.00;99.90
18103;DHT22;9178;51.120;6.192;2023-03-19T01:20:56;10.00;99.90
18103;DHT22;9178;51.120;6.192;2023-03-19T01:23:24;10.00;99.90
18103;DHT22;9178;51.120;6.192;2023-03-19T01:25:51;10.10;99.90
18103;DHT22;9178;51.120;6.192;2023-03-19T01:28:18;10.10;99.90
18103;DHT22;9178;51.120;6.192;2023-03-19T01:30:46;10.10;99.90
18103;DHT22;9178;51.120;6.192;2023-03-19T01:33:13;10.10;99.90
18103;DHT22;9178;51.120;6.192;2023-03-19T01:35:41;10.10;99.90
18103;DHT22;9178;51.120;6.192;2023-03-19T01:38:08;10.10;99.90
18103;DHT22;9178;51.120;6.192;2023-03-19T01:40:43;10.20;99.90
18103;DHT22;9178;51.120;6.192;2023-03-19T01:43:15;10.20;99.90
18103;DHT22;9178;51.120;6.192;2023-03-19T01:45:44;10.30;99.90
18103;DHT22;9178;51.120;6.192;2023-03-19T01:48:19;10.30;99.90
18103;DHT22;9178;51.120;6.192;2023-03-19T01:50:47;10.30;99.90
18103;DHT22;9178;51.120;6.192;2023-03-19T01:53:21;10.40;99.90
18103;DHT22;9178;51.120;6.192;2023-03-19T01:55:51;10.40;99.90
18103;DHT22;9178;51.120;6.192;2023-03-19T01:58:21;10.40;99.90
18103;DHT22;9178;51.120;6.192;2023-03-19T02:00:48;10.40;99.90
18103;DHT22;9178;51.120;6.192;2023-03-19T02:03:18;10.50;99.90
18103;DHT22;9178;51.120;6.192;2023-03-19T02:05:46;10.50;99.90
18103;DHT22;9178;51.120;6.192;2023-03-19T02:08:16;10.50;99.90
18103;DHT22;9178;51.120;6.192;2023-03-19T02:10:45;10.50;99.90
18103;DHT22;9178;51.120;6.192;2023-03-19T02:13:15;10.50;99.90
18103;DHT22;9178;51.120;6.192;2023-03-19T02:15:42;10.50;99.90
18103;DHT22;9178;51.120;6.192;2023-03-19T02:18:09;10.50;99.90
18103;DHT22;9178;51.120;6.192;2023-03-19T02:20:42;10.50;99.90
18103;DHT22;9178;51.120;6.192;2023-03-19T02:23:15;10.50;99.90
18103;DHT22;9178;51.120;6.192;2023-03-19T02:25:59;10.50;99.90
18103;DHT22;9178;51.120;6.192;2023-03-19T02:28:28;10.50;99.90
18103;DHT22;9178;51.120;6.192;2023-03-19T02:30:56;10.50;99.90
18103;DHT22;9178;51.120;6.192;2023-03-19T02:33:23;10.40;99.90
18103;DHT22;9178;51.120;6.192;2023-03-19T02:35:51;10.40;99.90
18103;DHT22;9178;51.120;6.192;2023-03-19T02:38:19;10.40;99.90
18103;DHT22;9178;51.120;6.192;2023-03-19T02:40:50;10.40;99.90
18103;DHT22;9178;51.120;6.192;2023-03-19T02:43:21;10.30;99.90
18103;DHT22;9178;51.120;6.192;2023-03-19T02:45:48;10.30;99.90
18103;DHT22;9178;51.120;6.192;2023-03-19T02:48:15;10.30;99.90
18103;DHT22;9178;51.120;6.192;2023-03-19T02:50:42;10.20;99.90
18103;DHT22;9178;51.120;6.192;2023-03-19T02:53:08;10.20;99.90
18103;DHT22;9178;51.120;6.192;2023-03-19T02:55:35;10.20;99.90
18103;DHT22;9178;51.120;6.192;2023-03-19T02:58:02;10.10;99.90
18103;DHT22;9178;51.120;6.192;2023-03-19T03:00:30;10.10;99.90
18103;DHT22;9178;51.120;6.192;2023-03-19T03:02:57;10.00;99.90
18103;DHT22;9178;51.120;6.192;2023-03-19T03:05:24;10.00;99.90
18103;DHT22;9178;51.120;6.192;2023-03-19T03:07:51;10.00;99.90
18103;DHT22;9178;51.120;6.192;2023-03-19T03:10:18;9.90;99.90
18103;DHT22;9178;51.120;6.192;2023-03-19T03:12:45;9.90;99.90
18103;DHT22;9178;51.120;6.192;2023-03-19T03:15:12;9.90;99.90
18103;DHT22;9178;51.120;6.192;2023-03-19T03:17:41;9.90;99.90
18103;DHT22;9178;51.120;6.192;2023-03-19T03:20:10;9.90;99.90
18103;DHT22;9178;51.120;6.192;2023-03-19T03:22:37;10.00;99.90
18103;DHT22;9178;51.120;6.192;2023-03-19T03:25:05;10.00;99.90
18103;DHT22;9178;51.120;6.192;2023-03-19T03:27:32;10.10;99.90
18103;DHT22;9178;51.120;6.192;2023-03-19T03:29:59;10.20;99.90
18103;DHT22;9178;51.120;6.192;2023-03-19T03:32:26;10.10;99.90
18103;DHT22;9178;51.120;6.192;2023-03-19T03:34:54;10.10;99.90
18103;DHT22;9178;51.120;6.192;2023-03-19T03:37:20;10.20;99.90
18103;DHT22;9178;51.120;6.192;2023-03-19T03:39:47;10.10;99.90
18103;DHT22;9178;51.120;6.192;2023-03-19T03:42:14;10.10;99.90
18103;DHT22;9178;51.120;6.192;2023-03-19T03:44:49;10.20;99.90
18103;DHT22;9178;51.120;6.192;2023-03-19T03:47:16;10.20;99.90
18103;DHT22;9178;51.120;6.192;2023-03-19T03:49:43;10.30;99.90
18103;DHT22;9178;51.120;6.192;2023-03-19T03:52:11;10.30;99.90
18103;DHT22;9178;51.120;6.192;2023-03-19T03:54:39;10.30;99.90
18103;DHT22;9178;51.120;6.192;2023-03-19T03:57:06;10.30;99.90
18103;DHT22;9178;51.120;6.192;2023-03-19T03:59:33;10.40;99.90
18103;DHT22;9178;51.120;6.192;2023-03-19T04:02:02;10.40;99.90
18103;DHT22;9178;51.120;6.192;2023-03-19T04:04:29;10.40;99.90
18103;DHT22;9178;51.120;6.192;2023-03-19T04:06:56;10.40;99.90
18103;DHT22;9178;51.120;6.192;2023-03-19T04:09:24;10.40;99.90
18103;DHT22;9178;51.120;6.192;2023-03-19T04:11:51;10.50;99.90
18103;DHT22;9178;51.120;6.192;2023-03-19T04:14:18;10.50;99.90
18103;DHT22;9178;51.120;6.192;2023-03-19T04:16:45;10.50;99.90
18103;DHT22;9178;51.120;6.192;2023-03-19T04:19:12;10.50;99.90
18103;DHT22;9178;51.120;6.192;2023-03-19T04:21:40;10.50;99.90
18103;DHT22;9178;51.120;6.192;2023-03-19T04:24:07;10.50;99.90
18103;DHT22;9178;51.120;6.192;2023-03-19T04:26:37;10.40;99.90
18103;DHT22;9178;51.120;6.192;2023-03-19T04:29:04;10.40;99.90
18103;DHT22;9178;51.120;6.192;2023-03-19T04:31:33;10.30;99.90
18103;DHT22;9178;51.120;6.192;2023-03-19T04:33:59;10.30;99.90
18103;DHT22;9178;51.120;6.192;2023-03-19T04:36:26;10.30;99.90
18103;DHT22;9178;51.120;6.192;2023-03-19T04:38:53;10.30;99.90
18103;DHT22;9178;51.120;6.192;2023-03-19T04:41:20;10.20;99.90
18103;DHT22;9178;51.120;6.192;2023-03-19T04:43:48;10.20;99.90
18103;DHT22;9178;51.120;6.192;2023-03-19T04:46:15;10.20;99.90
18103;DHT22;9178;51.120;6.192;2023-03-19T04:48:42;10.20;99.90
18103;DHT22;9178;51.120;6.192;2023-03-19T04:51:09;10.20;99.90
18103;DHT22;9178;51.120;6.192;2023-03-19T04:53:37;10.20;99.90
18103;DHT22;9178;51.120;6.192;2023-03-19T04:56:05;10.20;99.90
18103;DHT22;9178;51.120;6.192;2023-03-19T04:58:32;10.20;99.90
18103;DHT22;9178;51.120;6.192;2023-03-19T05:01:00;10.20;99.90
18103;DHT22;9178;51.120;6.192;2023-03-19T05:03:28;10.20;99.90
18103;DHT22;9178;51.120;6.192;2023-03-19T05:05:55;10.20;99.90
18103;DHT22;9178;51.120;6.192;2023-03-19T05:08:22;10.20;99.90
18103;DHT22;9178;51.120;6.192;2023-03-19T05:10:49;10.20;99.90
18103;DHT22;9178;51.120;6.192;2023-03-19T05:13:15;10.20;99.90
18103;DHT22;9178;51.120;6.192;2023-03-19T05:15:44;10.20;99.90
18103;DHT22;9178;51.120;6.192;2023-03-19T05:18:13;10.20;99.90
18103;DHT22;9178;51.120;6.192;2023-03-19T05:20:41;10.20;99.90
18103;DHT22;9178;51.120;6.192;2023-03-19T05:23:08;10.20;99.90
18103;DHT22;9178;51.120;6.192;2023-03-19T05:25:36;10.20;99.90
18103;DHT22;9178;51.120;6.192;2023-03-19T05:28:03;10.20;99.90
18103;DHT22;9178;51.120;6.192;2023-03-19T05:30:30;10.20;99.90
18103;DHT22;9178;51.120;6.192;2023-03-19T05:32:57;10.20;99.90
18103;DHT22;9178;51.120;6.192;2023-03-19T05:35:27;10.20;99.90
18103;DHT22;9178;51.120;6.192;2023-03-19T05:37:55;10.20;99.90
18103;DHT22;9178;51.120;6.192;2023-03-19T05:40:22;10.30;99.90
18103;DHT22;9178;51.120;6.192;2023-03-19T05:42:49;10.20;99.90
18103;DHT22;9178;51.120;6.192;2023-03-19T05:45:16;10.20;99.90
18103;DHT22;9178;51.120;6.192;2023-03-19T05:47:45;10.20;99.90
18103;DHT22;9178;51.120;6.192;2023-03-19T05:50:12;10.20;99.90
18103;DHT22;9178;51.120;6.192;2023-03-19T05:52:41;10.20;99.90
18103;DHT22;9178;51.120;6.192;2023-03-19T05:55:08;10.20;99.90
18103;DHT22;9178;51.120;6.192;2023-03-19T05:57:35;10.20;99.90
18103;DHT22;9178;51.120;6.192;2023-03-19T06:00:03;10.20;99.90
18103;DHT22;9178;51.120;6.192;2023-03-19T06:02:31;10.20;99.90
18103;DHT22;9178;51.120;6.192;2023-03-19T06:04:58;10.20;99.90
18103;DHT22;9178;51.120;6.192;2023-03-19T06:07:25;10.20;99.90
18103;DHT22;9178;51.120;6.192;2023-03-19T06:09:53;10.20;99.90
18103;DHT22;9178;51.120;6.192;2023-03-19T06:12:19;10.20;99.90
18103;DHT22;9178;51.120;6.192;2023-03-19T06:14:46;10.20;99.90
18103;DHT22;9178;51.120;6.192;2023-03-19T06:17:13;10.20;99.90
18103;DHT22;9178;51.120;6.192;2023-03-19T06:19:40;10.20;99.90
18103;DHT22;9178;51.120;6.192;2023-03-19T06:22:07;10.20;99.90
18103;DHT22;9178;51.120;6.192;2023-03-19T06:24:34;10.20;99.90
18103;DHT22;9178;51.120;6.192;2023-03-19T06:27:03;10.20;99.90
18103;DHT22;9178;51.120;6.192;2023-03-19T06:29:29;10.20;99.90
18103;DHT22;9178;51.120;6.192;2023-03-19T06:31:56;10.30;99.90
18103;DHT22;9178;51.120;6.192;2023-03-19T06:34:23;10.30;99.90
18103;DHT22;9178;51.120;6.192;2023-03-19T06:36:50;10.30;99.90
18103;DHT22;9178;51.120;6.192;2023-03-19T06:39:18;10.30;99.90
18103;DHT22;9178;51.120;6.192;2023-03-19T06:41:45;10.30;99.90
18103;DHT22;9178;51.120;6.192;2023-03-19T06:44:13;10.30;99.90
18103;DHT22;9178;51.120;6.192;2023-03-19T06:46:40;10.40;99.90
18103;DHT22;9178;51.120;6.192;2023-03-19T06:49:07;10.40;99.90
18103;DHT22;9178;51.120;6.192;2023-03-19T06:51:33;10.50;99.90
18103;DHT22;9178;51.120;6.192;2023-03-19T06:54:00;10.60;99.90
18103;DHT22;9178;51.120;6.192;2023-03-19T06:56:27;10.60;99.90
18103;DHT22;9178;51.120;6.192;2023-03-19T06:58:54;10.70;99.90
18103;DHT22;9178;51.120;6.192;2023-03-19T07:01:23;10.70;99.90
18103;DHT22;9178;51.120;6.192;2023-03-19T07:03:50;10.80;99.90
18103;DHT22;9178;51.120;6.192;2023-03-19T07:06:17;10.90;99.90
18103;DHT22;9178;51.120;6.192;2023-03-19T07:08:44;10.90;99.90
18103;DHT22;9178;51.120;6.192;2023-03-19T07:11:12;10.90;99.90
18103;DHT22;9178;51.120;6.192;2023-03-19T07:13:39;10.90;99.90
18103;DHT22;9178;51.120;6.192;2023-03-19T07:16:06;10.90;99.90
18103;DHT22;9178;51.120;6.192;2023-03-19T07:18:34;10.90;99.90
18103;DHT22;9178;51.120;6.192;2023-03-19T07:21:02;10.90;99.90
18103;DHT22;9178;51.120;6.192;2023-03-19T07:23:29;11.00;99.90
18103;DHT22;9178;51.120;6.192;2023-03-19T07:25:56;11.00;99.90
18103;DHT22;9178;51.120;6.192;2023-03-19T07:28:23;11.00;99.90
18103;DHT22;9178;51.120;6.192;2023-03-19T07:30:50;11.10;99.90
18103;DHT22;9178;51.120;6.192;2023-03-19T07:33:18;11.10;99.90
18103;DHT22;9178;51.120;6.192;2023-03-19T07:35:46;11.10;99.90
18103;DHT22;9178;51.120;6.192;2023-03-19T07:38:13;11.20;99.90
18103;DHT22;9178;51.120;6.192;2023-03-19T07:40:40;11.20;99.90
18103;DHT22;9178;51.120;6.192;2023-03-19T07:43:07;11.20;99.90
18103;DHT22;9178;51.120;6.192;2023-03-19T07:45:33;11.20;99.90
18103;DHT22;9178;51.120;6.192;2023-03-19T07:48:00;11.10;99.90
18103;DHT22;9178;51.120;6.192;2023-03-19T07:50:28;11.10;99.90
18103;DHT22;9178;51.120;6.192;2023-03-19T07:52:56;11.00;99.90
18103;DHT22;9178;51.120;6.192;2023-03-19T07:55:24;11.00;99.90
18103;DHT22;9178;51.120;6.192;2023-03-19T07:57:51;11.00;99.90
18103;DHT22;9178;51.120;6.192;2023-03-19T08:00:18;11.00;99.90
18103;DHT22;9178;51.120;6.192;2023-03-19T08:02:45;11.00;99.90
18103;DHT22;9178;51.120;6.192;2023-03-19T08:05:12;11.00;99.90
18103;DHT22;9178;51.120;6.192;2023-03-19T08:07:39;11.10;99.90
18103;DHT22;9178;51.120;6.192;2023-03-19T08:10:09;11.20;99.90
18103;DHT22;9178;51.120;6.192;2023-03-19T08:12:37;11.30;99.90
18103;DHT22;9178;51.120;6.192;2023-03-19T08:15:09;11.30;99.90
18103;DHT22;9178;51.120;6.192;2023-03-19T08:17:37;11.40;99.90
18103;DHT22;9178;51.120;6.192;2023-03-19T08:20:06;11.40;99.90
18103;DHT22;9178;51.120;6.192;2023-03-19T08:22:33;11.50;99.90
18103;DHT22;9178;51.120;6.192;2023-03-19T08:25:01;11.60;99.90
18103;DHT22;9178;51.120;6.192;2023-03-19T08:27:29;11.60;99.90
18103;DHT22;9178;51.120;6.192;2023-03-19T08:29:56;11.70;99.90
18103;DHT22;9178;51.120;6.192;2023-03-19T08:32:23;11.80;99.90
18103;DHT22;9178;51.120;6.192;2023-03-19T08:34:50;11.90;99.90
18103;DHT22;9178;51.120;6.192;2023-03-19T08:37:17;12.00;99.90
18103;DHT22;9178;51.120;6.192;2023-03-19T08:39:44;12.20;99.90
18103;DHT22;9178;51.120;6.192;2023-03-19T08:42:11;12.30;99.90
18103;DHT22;9178;51.120;6.192;2023-03-19T08:44:40;12.30;99.90
18103;DHT22;9178;51.120;6.192;2023-03-19T08:47:07;12.40;99.90
18103;DHT22;9178;51.120;6.192;2023-03-19T08:49:33;12.40;99.90
18103;DHT22;9178;51.120;6.192;2023-03-19T08:52:01;12.50;99.90
18103;DHT22;9178;51.120;6.192;2023-03-19T08:54:28;12.60;99.90
18103;DHT22;9178;51.120;6.192;2023-03-19T08:56:55;12.70;99.90
18103;DHT22;9178;51.120;6.192;2023-03-19T08:59:21;12.80;99.90
18103;DHT22;9178;51.120;6.192;2023-03-19T09:01:52;12.90;99.90
18103;DHT22;9178;51.120;6.192;2023-03-19T09:04:19;13.00;99.90
18103;DHT22;9178;51.120;6.192;2023-03-19T09:06:46;12.90;99.90
18103;DHT22;9178;51.120;6.192;2023-03-19T09:09:16;12.90;99.90
18103;DHT22;9178;51.120;6.192;2023-03-19T09:11:43;12.90;99.90
18103;DHT22;9178;51.120;6.192;2023-03-19T09:14:10;12.90;99.90
18103;DHT22;9178;51.120;6.192;2023-03-19T09:16:38;12.90;99.90
18103;DHT22;9178;51.120;6.192;2023-03-19T09:19:06;13.00;99.90
18103;DHT22;9178;51.120;6.192;2023-03-19T09:21:34;13.20;99.90
18103;DHT22;9178;51.120;6.192;2023-03-19T09:24:01;13.40;99.90
18103;DHT22;9178;51.120;6.192;2023-03-19T09:26:28;13.60;99.90
18103;DHT22;9178;51.120;6.192;2023-03-19T09:28:55;13.70;99.90
18103;DHT22;9178;51.120;6.192;2023-03-19T09:31:23;13.80;99.90
18103;DHT22;9178;51.120;6.192;2023-03-19T09:33:50;13.80;99.90
18103;DHT22;9178;51.120;6.192;2023-03-19T09:36:18;13.90;99.90
18103;DHT22;9178;51.120;6.192;2023-03-19T09:38:45;14.00;99.90
18103;DHT22;9178;51.120;6.192;2023-03-19T09:41:17;14.20;99.90
18103;DHT22;9178;51.120;6.192;2023-03-19T09:44:08;14.40;99.90
18103;DHT22;9178;51.120;6.192;2023-03-19T09:46:39;14.40;99.90
18103;DHT22;9178;51.120;6.192;2023-03-19T09:49:13;14.50;99.90
18103;DHT22;9178;51.120;6.192;2023-03-19T09:51:47;14.60;99.90
18103;DHT22;9178;51.120;6.192;2023-03-19T09:54:38;14.90;99.90
18103;DHT22;9178;51.120;6.192;2023-03-19T09:57:09;15.10;99.90
18103;DHT22;9178;51.120;6.192;2023-03-19T09:59:37;15.20;99.90
18103;DHT22;9178;51.120;6.192;2023-03-19T10:05:10;15.50;99.90
18103;DHT22;9178;51.120;6.192;2023-03-19T10:07:59;15.70;99.90
18103;DHT22;9178;51.120;6.192;2023-03-19T10:10:49;15.90;99.90
18103;DHT22;9178;51.120;6.192;2023-03-19T10:13:34;16.00;99.90
18103;DHT22;9178;51.120;6.192;2023-03-19T10:16:06;16.00;99.90
18103;DHT22;9178;51.120;6.192;2023-03-19T10:18:38;15.90;99.90
18103;DHT22;9178;51.120;6.192;2023-03-19T10:21:11;15.70;99.90
18103;DHT22;9178;51.120;6.192;2023-03-19T10:23:44;15.80;99.90
18103;DHT22;9178;51.120;6.192;2023-03-19T10:26:15;16.10;99.90
18103;DHT22;9178;51.120;6.192;2023-03-19T10:28:47;15.80;99.90
18103;DHT22;9178;51.120;6.192;2023-03-19T10:31:25;15.40;99.90
18103;DHT22;9178;51.120;6.192;2023-03-19T10:34:02;15.30;99.90
18103;DHT22;9178;51.120;6.192;2023-03-19T10:36:34;15.50;99.90
18103;DHT22;9178;51.120;6.192;2023-03-19T10:39:04;15.50;99.90
18103;DHT22;9178;51.120;6.192;2023-03-19T10:41:45;15.40;99.90
18103;DHT22;9178;51.120;6.192;2023-03-19T10:44:27;15.10;99.90
18103;DHT22;9178;51.120;6.192;2023-03-19T10:46:56;15.00;99.90
18103;DHT22;9178;51.120;6.192;2023-03-19T10:49:23;15.20;99.90
18103;DHT22;9178;51.120;6.192;2023-03-19T10:51:51;15.20;99.90
18103;DHT22;9178;51.120;6.192;2023-03-19T10:54:21;15.10;99.90
18103;DHT22;9178;51.120;6.192;2023-03-19T10:56:49;15.00;99.90
18103;DHT22;9178;51.120;6.192;2023-03-19T10:59:22;14.80;99.90
18103;DHT22;9178;51.120;6.192;2023-03-19T11:01:55;14.70;99.90
18103;DHT22;9178;51.120;6.192;2023-03-19T11:04:23;14.80;99.90
18103;DHT22;9178;51.120;6.192;2023-03-19T11:06:53;14.80;99.90
18103;DHT22;9178;51.120;6.192;2023-03-19T11:09:26;14.90;99.90
18103;DHT22;9178;51.120;6.192;2023-03-19T11:11:57;15.00;99.90
18103;DHT22;9178;51.120;6.192;2023-03-19T11:14:29;15.00;99.90
18103;DHT22;9178;51.120;6.192;2023-03-19T11:17:02;15.10;99.90
18103;DHT22;9178;51.120;6.192;2023-03-19T11:19:31;15.20;99.90
18103;DHT22;9178;51.120;6.192;2023-03-19T11:22:02;15.40;99.90
18103;DHT22;9178;51.120;6.192;2023-03-19T11:24:36;15.60;99.90
18103;DHT22;9178;51.120;6.192;2023-03-19T11:27:04;16.20;99.90
18103;DHT22;9178;51.120;6.192;2023-03-19T11:29:31;17.10;99.90
18103;DHT22;9178;51.120;6.192;2023-03-19T11:32:08;17.50;99.90
18103;DHT22;9178;51.120;6.192;2023-03-19T11:34:44;17.50;99.90
18103;DHT22;9178;51.120;6.192;2023-03-19T11:37:21;17.20;99.90
18103;DHT22;9178;51.120;6.192;2023-03-19T11:39:58;17.10;99.90
18103;DHT22;9178;51.120;6.192;2023-03-19T11:42:39;16.70;99.90
18103;DHT22;9178;51.120;6.192;2023-03-19T11:45:16;16.60;99.90
18103;DHT22;9178;51.120;6.192;2023-03-19T11:47:52;16.30;99.90
18103;DHT22;9178;51.120;6.192;2023-03-19T11:50:25;16.00;99.90
18103;DHT22;9178;51.120;6.192;2023-03-19T11:53:13;15.80;99.90
18103;DHT22;9178;51.120;6.192;2023-03-19T11:55:47;15.80;99.90
18103;DHT22;9178;51.120;6.192;2023-03-19T11:59:04;15.80;99.90
18103;DHT22;9178;51.120;6.192;2023-03-19T12:04:51;15.90;99.90
18103;DHT22;9178;51.120;6.192;2023-03-19T12:07:26;15.70;99.90
18103;DHT22;9178;51.120;6.192;2023-03-19T12:10:02;15.50;99.90
18103;DHT22;9178;51.120;6.192;2023-03-19T12:12:38;15.50;99.90
18103;DHT22;9178;51.120;6.192;2023-03-19T12:15:15;15.40;99.90
18103;DHT22;9178;51.120;6.192;2023-03-19T12:17:57;15.40;99.90
18103;DHT22;9178;51.120;6.192;2023-03-19T12:20:35;15.20;99.90
18103;DHT22;9178;51.120;6.192;2023-03-19T12:23:11;15.10;99.90
18103;DHT22;9178;51.120;6.192;2023-03-19T12:25:53;15.30;99.90
18103;DHT22;9178;51.120;6.192;2023-03-19T12:28:32;15.20;99.90
18103;DHT22;9178;51.120;6.192;2023-03-19T12:31:27;15.20;99.90
18103;DHT22;9178;51.120;6.192;2023-03-19T12:34:03;15.10;99.90
18103;DHT22;9178;51.120;6.192;2023-03-19T12:36:37;15.10;99.90
18103;DHT22;9178;51.120;6.192;2023-03-19T12:39:08;15.20;99.90
18103;DHT22;9178;51.120;6.192;2023-03-19T12:41:39;15.10;99.90
18103;DHT22;9178;51.120;6.192;2023-03-19T12:44:12;15.00;99.90
18103;DHT22;9178;51.120;6.192;2023-03-19T12:46:43;15.00;99.90
18103;DHT22;9178;51.120;6.192;2023-03-19T12:49:15;15.00;99.90
18103;DHT22;9178;51.120;6.192;2023-03-19T12:51:47;15.00;99.90
18103;DHT22;9178;51.120;6.192;2023-03-19T12:54:19;14.90;99.90
18103;DHT22;9178;51.120;6.192;2023-03-19T12:56:50;15.10;99.90
18103;DHT22;9178;51.120;6.192;2023-03-19T12:59:27;15.10;99.90
18103;DHT22;9178;51.120;6.192;2023-03-19T13:01:58;15.90;99.90
18103;DHT22;9178;51.120;6.192;2023-03-19T13:04:29;16.60;99.90
18103;DHT22;9178;51.120;6.192;2023-03-19T13:07:00;16.80;99.90
18103;DHT22;9178;51.120;6.192;2023-03-19T13:09:32;16.80;99.90
18103;DHT22;9178;51.120;6.192;2023-03-19T13:12:03;16.80;99.90
18103;DHT22;9178;51.120;6.192;2023-03-19T13:14:41;17.00;99.90
18103;DHT22;9178;51.120;6.192;2023-03-19T13:17:18;16.70;99.90
18103;DHT22;9178;51.120;6.192;2023-03-19T13:19:48;16.50;99.90
18103;DHT22;9178;51.120;6.192;2023-03-19T13:22:19;16.50;99.90
18103;DHT22;9178;51.120;6.192;2023-03-19T13:24:47;16.90;99.90
18103;DHT22;9178;51.120;6.192;2023-03-19T13:27:19;17.30;99.90
18103;DHT22;9178;51.120;6.192;2023-03-19T13:29:59;18.00;99.90
18103;DHT22;9178;51.120;6.192;2023-03-19T13:32:35;18.40;99.90
18103;DHT22;9178;51.120;6.192;2023-03-19T13:35:25;18.70;99.90
18103;DHT22;9178;51.120;6.192;2023-03-19T13:37:56;18.80;99.90
18103;DHT22;9178;51.120;6.192;2023-03-19T13:40:42;19.00;99.90
18103;DHT22;9178;51.120;6.192;2023-03-19T13:43:38;18.80;99.90
18103;DHT22;9178;51.120;6.192;2023-03-19T13:46:36;18.80;99.90
18103;DHT22;9178;51.120;6.192;2023-03-19T13:49:23;19.00;99.90
18103;DHT22;9178;51.120;6.192;2023-03-19T13:51:53;18.40;99.90
18103;DHT22;9178;51.120;6.192;2023-03-19T13:54:32;18.40;99.90
18103;DHT22;9178;51.120;6.192;2023-03-19T13:57:17;18.50;99.90
18103;DHT22;9178;51.120;6.192;2023-03-19T13:59:46;18.20;99.90
18103;DHT22;9178;51.120;6.192;2023-03-19T14:02:47;17.90;99.90
18103;DHT22;9178;51.120;6.192;2023-03-19T14:05:17;17.80;99.90
18103;DHT22;9178;51.120;6.192;2023-03-19T14:07:50;17.90;99.90
18103;DHT22;9178;51.120;6.192;2023-03-19T14:10:21;17.90;99.90
18103;DHT22;9178;51.120;6.192;2023-03-19T14:12:50;17.80;99.90
18103;DHT22;9178;51.120;6.192;2023-03-19T14:15:20;17.60;99.90
18103;DHT22;9178;51.120;6.192;2023-03-19T14:17:58;17.20;99.90
18103;DHT22;9178;51.120;6.192;2023-03-19T14:20:27;17.10;99.90
18103;DHT22;9178;51.120;6.192;2023-03-19T14:23:10;17.00;99.90
18103;DHT22;9178;51.120;6.192;2023-03-19T14:26:00;17.00;99.90
18103;DHT22;9178;51.120;6.192;2023-03-19T14:28:37;16.90;99.90
18103;DHT22;9178;51.120;6.192;2023-03-19T14:31:17;16.60;99.90
18103;DHT22;9178;51.120;6.192;2023-03-19T14:33:51;16.50;99.90
18103;DHT22;9178;51.120;6.192;2023-03-19T14:36:19;16.50;99.90
18103;DHT22;9178;51.120;6.192;2023-03-19T14:38:49;16.30;99.90
18103;DHT22;9178;51.120;6.192;2023-03-19T14:41:20;16.20;99.90
18103;DHT22;9178;51.120;6.192;2023-03-19T14:46:52;15.90;99.90
18103;DHT22;9178;51.120;6.192;2023-03-19T14:49:51;15.80;99.90
18103;DHT22;9178;51.120;6.192;2023-03-19T14:52:23;16.00;99.90
18103;DHT22;9178;51.120;6.192;2023-03-19T14:54:53;16.00;99.90
18103;DHT22;9178;51.120;6.192;2023-03-19T14:57:25;16.00;99.90
18103;DHT22;9178;51.120;6.192;2023-03-19T14:59:53;15.90;99.90
18103;DHT22;9178;51.120;6.192;2023-03-19T15:02:30;15.80;99.90
18103;DHT22;9178;51.120;6.192;2023-03-19T15:05:00;15.70;99.90
18103;DHT22;9178;51.120;6.192;2023-03-19T15:07:30;15.50;99.90
18103;DHT22;9178;51.120;6.192;2023-03-19T15:10:00;15.40;99.90
18103;DHT22;9178;51.120;6.192;2023-03-19T15:13:15;15.40;99.90
18103;DHT22;9178;51.120;6.192;2023-03-19T15:16:17;15.30;99.90
18103;DHT22;9178;51.120;6.192;2023-03-19T15:18:47;15.00;99.90
18103;DHT22;9178;51.120;6.192;2023-03-19T15:21:16;15.00;99.90
18103;DHT22;9178;51.120;6.192;2023-03-19T15:23:45;15.00;99.90
18103;DHT22;9178;51.120;6.192;2023-03-19T15:26:12;14.90;99.90
18103;DHT22;9178;51.120;6.192;2023-03-19T15:28:45;14.90;99.90
18103;DHT22;9178;51.120;6.192;2023-03-19T15:31:13;14.90;99.90
18103;DHT22;9178;51.120;6.192;2023-03-19T15:33:41;14.90;99.90
18103;DHT22;9178;51.120;6.192;2023-03-19T15:36:12;15.00;99.90
18103;DHT22;9178;51.120;6.192;2023-03-19T15:38:46;15.10;99.90
18103;DHT22;9178;51.120;6.192;2023-03-19T15:41:15;15.00;99.90
18103;DHT22;9178;51.120;6.192;2023-03-19T15:43:43;15.10;99.90
18103;DHT22;9178;51.120;6.192;2023-03-19T15:46:13;15.00;99.90
18103;DHT22;9178;51.120;6.192;2023-03-19T15:48:44;14.90;99.90
18103;DHT22;9178;51.120;6.192;2023-03-19T15:51:15;14.90;99.90
18103;DHT22;9178;51.120;6.192;2023-03-19T15:53:44;14.90;99.90
18103;DHT22;9178;51.120;6.192;2023-03-19T15:56:13;15.00;99.90
18103;DHT22;9178;51.120;6.192;2023-03-19T15:58:44;15.00;99.90
18103;DHT22;9178;51.120;6.192;2023-03-19T16:01:13;15.10;99.90
18103;DHT22;9178;51.120;6.192;2023-03-19T16:03:42;15.00;99.90
18103;DHT22;9178;51.120;6.192;2023-03-19T16:06:18;14.90;99.90
18103;DHT22;9178;51.120;6.192;2023-03-19T16:08:49;14.70;99.90
18103;DHT22;9178;51.120;6.192;2023-03-19T16:11:28;14.60;99.90
18103;DHT22;9178;51.120;6.192;2023-03-19T16:13:58;14.60;99.90
18103;DHT22;9178;51.120;6.192;2023-03-19T16:16:28;14.60;99.90
18103;DHT22;9178;51.120;6.192;2023-03-19T16:18:56;14.60;99.90